Site contains unofficial IBTrACS data. Visit the IBTrACS Website to access archived data.

1886 NOT_NAMED (1886052S11089)


IBTrACS version v04r00. Visit IBTrACS website for data access.
Please direct all questions to the IBTrACS Q and A forum

Storm track - Intensity - Wind Radii - Intensity Data - Source Data - All data

Summary Information

Storm ID 1886052S11089
Start Feb 21 06Z
End Feb 27 06Z
ATCF IDs
Track status Best track data.

Storm track plot

Map of storm track

Intensity plots

No Intensity information for this storm


Radial wind information

No radial wind information for this storm


Position and Intensity Table

BASIN ISO_TIME_________ NATURE LAT LON
degrees north degrees east
SI 1886-02-21 06:00:00 NR -10.50 89.30
SI 09:00:00 NR -10.59 89.18
SI 12:00:00 NR -10.68 89.06
SI 15:00:00 NR -10.77 88.94
SI 18:00:00 NR -10.89 88.89
SI 21:00:00 NR -11.00 88.79
SI 1886-02-22 00:00:00 NR -11.10 88.67
SI 03:00:00 NR -11.20 88.52
SI 06:00:00 NR -11.30 88.35
SI 09:00:00 NR -11.41 88.17
SI 12:00:00 NR -11.54 87.98
SI 15:00:00 NR -11.68 87.80
SI 18:00:00 NR -11.83 87.64
SI 21:00:00 NR -11.99 87.47
SI 1886-02-23 00:00:00 NR -12.17 87.32
SI 03:00:00 NR -12.36 87.23
SI 06:00:00 NR -12.55 87.20
SI 09:00:00 NR -12.75 87.27
SI 12:00:00 NR -12.94 87.41
SI 15:00:00 NR -13.14 87.59
SI 18:00:00 NR -13.32 87.79
SI 21:00:00 NR -13.49 87.98
SI 1886-02-24 00:00:00 NR -13.64 88.18
SI 03:00:00 NR -13.77 88.37
SI 06:00:00 NR -13.90 88.55
SI 09:00:00 NR -14.01 88.68
SI 12:00:00 NR -14.11 88.80
SI 15:00:00 NR -14.20 88.91
SI 18:00:00 NR -14.28 89.03
SI 21:00:00 NR -14.34 89.15
SI 1886-02-25 00:00:00 NR -14.40 89.28
SI 03:00:00 NR -14.46 89.45
SI 06:00:00 NR -14.55 89.65
SI 09:00:00 NR -14.69 89.93
SI 12:00:00 NR -14.85 90.26
SI 15:00:00 NR -15.03 90.61
SI 18:00:00 NR -15.20 90.96
SI 21:00:00 NR -15.37 91.28
SI 1886-02-26 00:00:00 NR -15.52 91.56
SI 03:00:00 NR -15.66 91.82
SI 06:00:00 NR -15.80 92.06
SI 09:00:00 NR -15.92 92.27
SI 12:00:00 NR -16.03 92.51
SI 15:00:00 NR -16.12 92.73
SI 18:00:00 NR -16.21 92.93
SI 21:00:00 NR -16.29 93.11
SI 1886-02-27 00:00:00 NR -16.36 93.28
SI 03:00:00 NR -16.43 93.44
SI 06:00:00 NR -16.50 93.60

Source Information

Agency Information
USA
TOKYO
CMA
HKO
NEWDELHI
REUNION WMO-Best-Tracks.txt:Line=1454:xxxx886212
BOM
NADI
WELLINGTON
DS824
TD9636 cons_worldwide_trop_cyclone_18710101-19891231-005:Line=1970
TD9635
NEUMANN
MLC

All available IBTrACS Data

SEASON BASIN SUBBASIN ISO_TIME_________ NATURE LAT LON DIST2LAND LANDFALL IFLAG USA SSHS REUNION LAT REUNION LON REUNION TYPE REUNION TNUM TD9636 LAT TD9636 LON TD9636 STAGE STORM SPEED STORM DIR
Year degrees north degrees east km km 1 degrees north degrees east 1 degrees north degrees east kts degrees
1886 SI MM 1886-02-21 06:00:00 NR -10.50 89.30 1448 1448 _____O________ -1 -10.50 89.30 99 9.90 3 233
1886 SI MM 09:00:00 NR -10.59 89.18 1464 1464 _____P________ -1 -10.59 89.18 99 3 233
1886 SI MM 12:00:00 NR -10.68 89.06 1479 1479 _____P________ -1 -10.68 89.06 99 3 233
1886 SI MM 15:00:00 NR -10.77 88.94 1503 1503 _____P________ -1 -10.77 88.94 99 3 219
1886 SI MM 18:00:00 NR -10.89 88.89 1511 1511 _____P____O___ -1 -10.86 88.81 99 -11.00 89.20 7 3 212
1886 SI MM 21:00:00 NR -11.00 88.79 1526 1526 _____P____P___ -1 -10.96 88.67 99 -11.07 89.03 7 3 226
1886 SI MM 1886-02-22 00:00:00 NR -11.10 88.67 1542 1542 _____P____P___ -1 -11.07 88.53 99 -11.14 88.86 7 3 233
1886 SI MM 03:00:00 NR -11.20 88.52 1566 1566 _____P____P___ -1 -11.18 88.37 99 -11.21 88.68 7 4 237
1886 SI MM 06:00:00 NR -11.30 88.35 1581 1589 _____O____O___ -1 -11.30 88.20 99 9.90 -11.30 88.50 7 4 239
1886 SI MM 09:00:00 NR -11.41 88.17 1605 1605 _____P____P___ -1 -11.43 88.02 99 -11.40 88.32 7 4 237
1886 SI MM 12:00:00 NR -11.54 87.98 1629 1629 _____P____P___ -1 -11.56 87.83 99 -11.51 88.13 7 4 234
1886 SI MM 15:00:00 NR -11.68 87.80 1660 1660 _____P____P___ -1 -11.71 87.64 99 -11.65 87.96 7 4 229
1886 SI MM 18:00:00 NR -11.83 87.64 1684 1684 _____P____O___ -1 -11.86 87.47 99 -11.80 87.80 7 5 226
1886 SI MM 21:00:00 NR -11.99 87.47 1707 1707 _____P____P___ -1 -12.01 87.32 99 -11.98 87.61 7 5 221
1886 SI MM 1886-02-23 00:00:00 NR -12.17 87.32 1738 1738 _____P____P___ -1 -12.17 87.20 99 -12.18 87.45 7 4 213
1886 SI MM 03:00:00 NR -12.36 87.23 1761 1761 _____P____P___ -1 -12.33 87.13 99 -12.39 87.33 7 4 198
1886 SI MM 06:00:00 NR -12.55 87.20 1768 1768 _____O____O___ -1 -12.50 87.10 99 9.90 -12.60 87.30 7 4 174
1886 SI MM 09:00:00 NR -12.75 87.27 1775 1775 _____P____P___ -1 -12.68 87.15 99 -12.81 87.39 7 4 152
1886 SI MM 12:00:00 NR -12.94 87.41 1783 1783 _____P____P___ -1 -12.86 87.26 99 -13.02 87.56 7 5 141
1886 SI MM 15:00:00 NR -13.14 87.59 1783 1783 _____P____P___ -1 -13.05 87.41 99 -13.22 87.78 7 5 135
1886 SI MM 18:00:00 NR -13.32 87.79 1784 1784 _____P____O___ -1 -13.24 87.58 99 -13.40 88.00 7 5 132
1886 SI MM 21:00:00 NR -13.49 87.98 1785 1778 _____P____P___ -1 -13.42 87.78 99 -13.55 88.18 7 5 130
1886 SI MM 1886-02-24 00:00:00 NR -13.64 88.18 1778 1778 _____P____P___ -1 -13.59 87.99 99 -13.68 88.37 7 5 128
1886 SI MM 03:00:00 NR -13.77 88.37 1781 1774 _____P____P___ -1 -13.75 88.20 99 -13.79 88.54 7 4 126
1886 SI MM 06:00:00 NR -13.90 88.55 1775 1775 _____O____O___ -1 -13.90 88.40 99 9.90 -13.90 88.70 7 4 129
1886 SI MM 09:00:00 NR -14.01 88.68 1777 1777 _____P____P___ -1 -14.01 88.52 99 -14.02 88.84 7 3 132
1886 SI MM 12:00:00 NR -14.11 88.80 1778 1778 _____P____P___ -1 -14.10 88.63 99 -14.12 88.96 7 3 130
1886 SI MM 15:00:00 NR -14.20 88.91 1780 1773 _____P____P___ -1 -14.19 88.75 99 -14.22 89.08 7 3 127
1886 SI MM 18:00:00 NR -14.28 89.03 1782 1775 _____P____O___ -1 -14.26 88.86 99 -14.30 89.20 7 3 121
1886 SI MM 21:00:00 NR -14.34 89.15 1775 1769 _____P____P___ -1 -14.34 88.99 99 -14.34 89.31 7 3 115
1886 SI MM 1886-02-25 00:00:00 NR -14.40 89.28 1771 1764 _____P____P___ -1 -14.42 89.13 99 -14.38 89.43 7 3 113
1886 SI MM 03:00:00 NR -14.46 89.45 1773 1761 _____P____P___ -1 -14.50 89.30 99 -14.42 89.59 7 4 113
1886 SI MM 06:00:00 NR -14.55 89.65 1754 1754 _____O____O___ -1 -14.60 89.50 99 9.90 -14.50 89.80 7 5 116
1886 SI MM 09:00:00 NR -14.69 89.93 1760 1751 _____P____P___ -1 -14.74 89.76 99 -14.64 90.10 7 7 117
1886 SI WA 12:00:00 NR -14.85 90.26 1754 1742 _____P____P___ -1 -14.89 90.06 99 -14.82 90.46 7 7 117
1886 SI WA 15:00:00 NR -15.03 90.61 1746 1744 _____P____P___ -1 -15.04 90.38 99 -15.01 90.84 7 8 117
1886 SI WA 18:00:00 NR -15.20 90.96 1743 1737 _____P____O___ -1 -15.20 90.71 99 -15.20 91.20 7 7 117
1886 SI WA 21:00:00 NR -15.37 91.28 1746 1741 _____P____P___ -1 -15.36 91.05 99 -15.37 91.52 7 7 119
1886 SI WA 1886-02-26 00:00:00 NR -15.52 91.56 1741 1734 _____P____P___ -1 -15.52 91.38 99 -15.52 91.80 7 6 120
1886 SI WA 03:00:00 NR -15.66 91.82 1742 1728 _____P____P___ -1 -15.66 91.70 99 -15.66 92.06 7 6 120
1886 SI WA 06:00:00 NR -15.80 92.06 1729 1724 _____O____O___ -1 -15.80 92.00 99 9.90 -15.80 92.30 7 5 121
1886 SI WA 09:00:00 NR -15.92 92.27 1724 1717 _____P________ -1 -15.92 92.27 99 7 5 118
1886 SI WA 12:00:00 NR -16.03 92.51 1717 1711 _____P________ -1 -16.03 92.51 99 7 5 115
1886 SI WA 15:00:00 NR -16.12 92.73 1711 1703 _____P________ -1 -16.12 92.73 99 7 4 115
1886 SI WA 18:00:00 NR -16.21 92.93 1703 1693 _____P________ -1 -16.21 92.93 99 4 114
1886 SI WA 21:00:00 NR -16.29 93.11 1693 1683 _____P________ -1 -16.29 93.11 99 4 114
1886 SI WA 1886-02-27 00:00:00 NR -16.36 93.28 1683 1674 _____P________ -1 -16.36 93.28 99 4 114
1886 SI WA 03:00:00 NR -16.43 93.44 1674 1665 _____P________ -1 -16.43 93.44 99 3 114
1886 SI WA 06:00:00 NR -16.50 93.60 1665 _____O________ -1 -16.50 93.60 99 9.90 3 114